Time;durP1;ratioP1;P1;durP2;ratioP2;P2;SDS_P1;SDS_P2;PMS_P1;PMS_P2;Temp;Humidity;BMP_temperature;BMP_pressure;BME280_temperature;BME280_humidity;BME280_pressure;Samples;Min_cycle;Max_cycle;Signal;HPM_P1;HPM_P2
2023/06/06 00:01:57;;;;;;;19.45;8.43;;;;;;;11.61;81.13;102420.31;6077218;19;20538;-71
2023/06/06 00:04:02;;;;;;;24.33;8.23;;;;;;;11.62;80.96;102421.19;6093080;19;20014;-71
2023/06/06 00:06:08;;;;;;;22.23;9.30;;;;;;;11.57;81.32;102420.41;6098000;19;20036;-71
2023/06/06 00:08:16;;;;;;;25.17;8.20;;;;;;;11.57;81.24;102417.78;6089654;19;20357;-72
2023/06/06 00:10:21;;;;;;;21.70;8.77;;;;;;;11.57;80.95;102423.03;6099844;19;20010;-71
2023/06/06 00:12:28;;;;;;;28.13;9.25;;;;;;;11.53;81.15;102422.25;6097216;19;20029;-72
2023/06/06 00:14:35;;;;;;;18.27;7.40;;;;;;;11.51;81.20;102415.28;6072629;19;20070;-74
2023/06/06 00:16:40;;;;;;;22.20;8.82;;;;;;;11.47;81.29;102421.47;6088448;19;20233;-74
2023/06/06 00:18:45;;;;;;;21.58;10.05;;;;;;;11.46;81.13;102419.75;6073927;19;20017;-72
2023/06/06 00:20:53;;;;;;;19.55;8.05;;;;;;;11.49;81.31;102420.56;6077071;19;20018;-72
2023/06/06 00:22:57;;;;;;;24.70;9.27;;;;;;;11.48;81.49;102416.19;6099146;19;20729;-72
2023/06/06 00:25:06;;;;;;;22.70;8.90;;;;;;;11.50;81.53;102411.75;6084499;19;20010;-71
2023/06/06 00:27:11;;;;;;;22.27;7.78;;;;;;;11.48;81.18;102412.66;6089433;19;20057;-72
2023/06/06 00:29:19;;;;;;;23.92;9.27;;;;;;;11.45;81.39;102413.59;6087400;19;20043;-72
2023/06/06 00:31:24;;;;;;;30.27;8.80;;;;;;;11.47;81.80;102416.22;6090015;19;20039;-72
2023/06/06 00:33:29;;;;;;;22.40;8.32;;;;;;;11.45;81.46;102420.63;6079510;19;20570;-71
2023/06/06 00:35:34;;;;;;;25.42;8.65;;;;;;;11.46;81.99;102414.47;6095232;19;20016;-73
2023/06/06 00:37:42;;;;;;;25.35;8.88;;;;;;;11.39;81.43;102414.56;6088548;19;20513;-72
2023/06/06 00:39:47;;;;;;;23.05;9.77;;;;;;;11.37;81.90;102420.75;6088663;19;20079;-72
2023/06/06 00:42:01;;;;;;;24.45;8.73;;;;;;;11.31;82.13;102415.63;6089284;19;20043;-71
2023/06/06 00:44:06;;;;;;;25.73;9.07;;;;;;;11.24;82.23;102414.84;6084860;19;20010;-72
2023/06/06 00:46:11;;;;;;;25.88;9.10;;;;;;;11.27;82.19;102417.47;6085789;19;20007;-71
2023/06/06 00:48:16;;;;;;;29.35;9.75;;;;;;;11.24;82.34;102414.84;6096137;19;20010;-72
2023/06/06 00:50:24;;;;;;;30.25;10.05;;;;;;;11.27;82.44;102413.94;6093491;19;20505;-72
2023/06/06 00:52:32;;;;;;;25.02;9.18;;;;;;;11.20;82.61;102410.56;6088982;19;20098;-71
2023/06/06 00:54:38;;;;;;;26.25;9.73;;;;;;;11.16;82.58;102417.66;6079717;19;20531;-72
2023/06/06 00:56:46;;;;;;;22.83;9.48;;;;;;;11.24;82.60;102421.88;6092156;19;20006;-72
2023/06/06 00:58:57;;;;;;;28.02;10.13;;;;;;;11.20;82.42;102418.47;6086577;19;20131;-72
2023/06/06 01:01:04;;;;;;;35.92;9.45;;;;;;;11.18;82.68;102414.97;6083598;19;20504;-72
2023/06/06 01:03:14;;;;;;;30.10;9.02;;;;;;;11.22;82.82;102411.41;6084699;19;20072;-72
2023/06/06 01:05:21;;;;;;;24.02;8.82;;;;;;;11.16;82.82;102417.66;6089216;19;20018;-72
2023/06/06 01:07:29;;;;;;;21.73;9.25;;;;;;;11.19;82.76;102422.84;6088903;19;20528;-72
2023/06/06 01:09:35;;;;;;;26.08;8.93;;;;;;;11.20;82.57;102418.47;6081076;19;20630;-73
2023/06/06 01:11:50;;;;;;;22.63;8.68;;;;;;;11.21;82.71;102410.50;6076706;19;20003;-72
2023/06/06 01:14:05;;;;;;;27.02;9.65;;;;;;;11.24;82.50;102414.00;6087934;19;20006;-73
2023/06/06 01:16:16;;;;;;;22.20;9.27;;;;;;;11.17;82.99;102410.63;6081873;19;20493;-72
2023/06/06 01:18:24;;;;;;;27.88;9.00;;;;;;;11.16;82.71;102416.75;6080770;19;20014;-72
2023/06/06 01:20:30;;;;;;;21.27;8.80;;;;;;;11.14;83.24;102410.69;6081762;19;20035;-72
2023/06/06 01:22:39;;;;;;;24.65;9.32;;;;;;;11.12;82.97;102413.31;6082634;19;20007;-71
2023/06/06 01:24:45;;;;;;;23.73;9.07;;;;;;;11.14;83.10;102415.94;6083476;19;20011;-74
2023/06/06 01:26:50;;;;;;;24.73;9.23;;;;;;;11.14;82.76;102418.56;6089413;19;20015;-72
2023/06/06 01:28:54;;;;;;;28.70;9.05;;;;;;;11.16;82.81;102412.41;6095654;19;20126;-72
2023/06/06 01:31:02;;;;;;;25.75;9.65;;;;;;;11.17;82.72;102408.84;6093908;19;20026;-71
2023/06/06 01:33:19;;;;;;;35.50;11.25;;;;;;;11.16;82.97;102411.50;6094399;19;20007;-74
2023/06/06 01:35:29;;;;;;;21.88;8.18;;;;;;;11.12;82.99;102408.06;6095359;19;20025;-73
2023/06/06 01:37:46;;;;;;;23.80;9.63;;;;;;;11.12;82.99;102407.19;6093222;19;20039;-73
2023/06/06 01:39:53;;;;;;;22.23;8.90;;;;;;;11.08;82.61;102402.88;6088960;19;20023;-74
2023/06/06 01:42:00;;;;;;;21.77;8.82;;;;;;;11.07;82.88;102406.41;6088781;19;20010;-72
2023/06/06 01:44:08;;;;;;;24.55;8.68;;;;;;;11.06;83.34;102404.66;6099371;19;20007;-73
2023/06/06 01:46:14;;;;;;;25.65;9.30;;;;;;;11.06;83.41;102407.28;6090452;19;20554;-73
2023/06/06 01:48:20;;;;;;;27.55;9.63;;;;;;;11.04;83.22;102407.34;6085916;19;20644;-72
2023/06/06 01:50:25;;;;;;;24.63;8.30;;;;;;;11.04;83.21;102406.47;6098878;19;20344;-73
2023/06/06 01:52:30;;;;;;;24.00;10.45;;;;;;;11.03;83.28;102410.84;6095275;19;20007;-73
2023/06/06 01:54:40;;;;;;;29.05;10.77;;;;;;;11.00;83.46;102405.63;6093730;19;20320;-74
2023/06/06 01:56:45;;;;;;;23.42;8.25;;;;;;;10.90;83.85;102404.94;6092575;19;20047;-75
2023/06/06 01:58:50;;;;;;;25.33;9.57;;;;;;;10.91;83.71;102409.31;6083902;19;20006;-74
2023/06/06 02:00:55;;;;;;;22.88;8.35;;;;;;;10.93;83.66;102407.53;6086811;19;20047;-72
2023/06/06 02:03:03;;;;;;;31.50;10.05;;;;;;;10.90;83.74;102406.69;6084152;19;20463;-74
2023/06/06 02:05:10;;;;;;;25.40;9.27;;;;;;;10.85;84.25;102401.53;6086563;19;20014;-73
2023/06/06 02:07:15;;;;;;;20.90;9.25;;;;;;;10.85;84.35;102404.16;6085245;19;20734;-75
2023/06/06 02:09:22;;;;;;;27.63;10.20;;;;;;;10.89;84.20;102391.81;6088028;19;20066;-74
2023/06/06 02:11:33;;;;;;;26.60;9.77;;;;;;;10.83;84.47;102405.94;6094066;19;20020;-73
2023/06/06 02:13:37;;;;;;;26.33;9.95;;;;;;;10.83;84.54;102405.94;6085183;19;20007;-74
2023/06/06 02:15:42;;;;;;;22.55;10.43;;;;;;;10.83;84.64;102403.31;6090086;19;20111;-73
2023/06/06 02:17:48;;;;;;;29.33;10.88;;;;;;;10.83;84.60;102402.44;6097338;19;20006;-74
2023/06/06 02:19:54;;;;;;;27.30;9.40;;;;;;;10.81;84.52;102405.09;6094186;19;20014;-73
2023/06/06 02:21:59;;;;;;;26.10;8.60;;;;;;;10.80;84.67;102402.50;6096140;19;20082;-74
2023/06/06 02:24:03;;;;;;;23.92;8.98;;;;;;;10.72;84.59;102410.50;6086548;19;20007;-74
2023/06/06 02:26:09;;;;;;;24.75;9.20;;;;;;;10.63;85.28;102410.63;6095450;19;20529;-74
2023/06/06 02:28:20;;;;;;;28.05;10.82;;;;;;;10.64;84.59;102408.00;6078281;19;20031;-73
2023/06/06 02:30:25;;;;;;;27.30;9.48;;;;;;;10.62;85.12;102414.16;6090196;19;20432;-74
2023/06/06 02:32:31;;;;;;;27.10;10.57;;;;;;;10.60;85.19;102411.56;6100971;19;20003;-73
2023/06/06 02:34:36;;;;;;;29.25;9.35;;;;;;;10.60;85.67;102402.81;6094879;19;20006;-74
2023/06/06 02:36:41;;;;;;;23.88;9.57;;;;;;;10.50;85.27;102405.56;6077970;19;20002;-74
2023/06/06 02:38:46;;;;;;;25.30;9.82;;;;;;;10.49;85.71;102401.19;6088368;19;20440;-74
2023/06/06 02:40:51;;;;;;;24.42;9.23;;;;;;;10.49;85.66;102402.97;6097456;19;20551;-73
2023/06/06 02:42:56;;;;;;;25.70;9.82;;;;;;;10.45;86.26;102404.78;6100654;19;20035;-73
2023/06/06 02:45:04;;;;;;;25.45;9.80;;;;;;;10.47;85.68;102397.72;6100624;19;20014;-73
2023/06/06 02:47:09;;;;;;;22.10;9.73;;;;;;;10.47;85.87;102394.22;6096442;19;20045;-73
2023/06/06 02:49:14;;;;;;;25.63;10.00;;;;;;;10.56;85.81;102399.38;5950775;19;2818406;-74
2023/06/06 02:51:20;;;;;;;24.02;9.85;;;;;;;10.53;85.49;102409.91;6099368;19;20006;-74
2023/06/06 02:53:27;;;;;;;28.88;9.82;;;;;;;10.49;85.68;102409.09;6083343;19;20554;-74
2023/06/06 02:55:32;;;;;;;26.10;9.68;;;;;;;10.46;86.12;102398.63;6095761;19;20390;-73
2023/06/06 02:57:37;;;;;;;22.83;9.20;;;;;;;10.43;86.40;102401.31;6083556;19;20006;-74
2023/06/06 02:59:42;;;;;;;21.35;9.35;;;;;;;10.42;86.42;102404.81;6090222;19;20003;-73
2023/06/06 03:01:50;;;;;;;25.92;10.75;;;;;;;10.37;86.47;102404.00;6092519;19;20101;-73
2023/06/06 03:03:57;;;;;;;29.25;9.68;;;;;;;10.46;86.60;102409.13;6092259;19;20006;-75
2023/06/06 03:06:03;;;;;;;25.13;10.10;;;;;;;10.47;86.59;102405.59;6097822;19;20007;-71
2023/06/06 03:08:08;;;;;;;24.20;9.88;;;;;;;10.47;87.00;102408.22;6098045;19;20102;-71
2023/06/06 03:10:13;;;;;;;25.00;10.45;;;;;;;10.48;86.76;102401.25;6096096;19;20328;-71
2023/06/06 03:12:18;;;;;;;23.90;9.73;;;;;;;10.49;86.50;102409.09;6083989;19;20015;-72
2023/06/06 03:14:23;;;;;;;24.83;10.20;;;;;;;10.43;86.53;102403.06;6094604;19;20059;-72
2023/06/06 03:16:28;;;;;;;23.10;9.60;;;;;;;10.44;86.83;102410.91;6083595;19;20018;-72
2023/06/06 03:18:37;;;;;;;25.23;8.85;;;;;;;10.45;86.81;102412.66;6097629;19;20006;-72
2023/06/06 03:20:44;;;;;;;22.92;9.23;;;;;;;10.39;86.83;102406.63;6095804;19;20035;-72
2023/06/06 03:22:50;;;;;;;24.35;9.82;;;;;;;10.44;87.16;102415.31;6102291;19;20007;-72
2023/06/06 03:24:56;;;;;;;24.90;10.30;;;;;;;10.48;87.03;102414.38;6100539;19;20056;-71
2023/06/06 03:27:00;;;;;;;22.17;9.13;;;;;;;10.43;87.35;102410.94;6101163;19;20389;-71
2023/06/06 03:29:06;;;;;;;25.65;9.80;;;;;;;10.46;86.76;102411.75;6094569;19;20070;-71
2023/06/06 03:31:11;;;;;;;26.77;10.82;;;;;;;10.45;87.18;102417.94;6087539;19;20015;-71
2023/06/06 03:33:16;;;;;;;21.02;8.93;;;;;;;10.43;87.16;102417.06;6094491;19;20675;-74
2023/06/06 03:35:27;;;;;;;25.95;8.85;;;;;;;10.44;87.09;102413.53;6094734;19;20838;-73
2023/06/06 03:37:32;;;;;;;23.38;9.05;;;;;;;10.42;87.35;102410.06;6086379;19;20021;-73
2023/06/06 03:39:38;;;;;;;18.55;9.07;;;;;;;10.48;87.37;102407.38;6077178;19;20010;-73
2023/06/06 03:41:44;;;;;;;25.40;10.32;;;;;;;10.52;87.00;102406.41;6090698;19;20007;-74
2023/06/06 03:43:50;;;;;;;21.33;8.88;;;;;;;10.52;87.35;102409.03;6098332;19;20591;-73
2023/06/06 03:45:57;;;;;;;19.48;8.10;;;;;;;10.55;87.21;102411.59;6076660;19;21376;-71
2023/06/06 03:48:02;;;;;;;18.98;8.15;;;;;;;10.59;87.28;102411.59;6086098;19;20017;-71
2023/06/06 03:50:08;;;;;;;23.25;9.13;;;;;;;10.60;87.12;102415.94;6095682;19;20003;-71
2023/06/06 03:52:18;;;;;;;22.25;8.63;;;;;;;10.64;87.03;102412.38;6085044;19;20010;-71
2023/06/06 03:54:25;;;;;;;17.65;8.13;;;;;;;10.67;86.65;102407.06;6092486;19;20024;-70
2023/06/06 03:56:30;;;;;;;20.50;9.38;;;;;;;10.67;87.13;102412.34;6096848;19;20006;-71
2023/06/06 03:58:35;;;;;;;17.63;7.32;;;;;;;10.66;86.83;102408.81;6078392;19;20007;-71
2023/06/06 04:00:40;;;;;;;19.90;9.38;;;;;;;10.71;87.08;102416.63;6072191;19;20035;-72
2023/06/06 04:02:48;;;;;;;18.85;8.20;;;;;;;10.71;87.06;102411.38;6095822;19;20011;-71
2023/06/06 04:04:55;;;;;;;20.05;7.80;;;;;;;10.80;86.80;102413.00;6095160;19;20612;-73
2023/06/06 04:07:00;;;;;;;19.02;8.23;;;;;;;10.86;87.07;102402.38;6086286;19;20026;-71
2023/06/06 04:09:10;;;;;;;18.60;8.55;;;;;;;10.93;86.86;102407.53;6090173;19;20280;-73
2023/06/06 04:11:18;;;;;;;20.90;7.88;;;;;;;10.97;86.71;102406.56;6100097;19;20021;-74
2023/06/06 04:13:23;;;;;;;13.70;6.60;;;;;;;11.05;86.41;102409.06;6092150;19;20552;-73
2023/06/06 04:15:28;;;;;;;18.00;8.30;;;;;;;11.07;86.60;102406.41;6092732;19;20005;-74
2023/06/06 04:17:33;;;;;;;16.38;7.25;;;;;;;11.15;86.47;102410.63;6093944;19;20340;-73
2023/06/06 04:19:41;;;;;;;17.73;7.43;;;;;;;11.28;86.17;102406.03;6095727;19;20024;-74
2023/06/06 04:21:48;;;;;;;16.75;6.80;;;;;;;11.32;86.48;102404.19;6093672;19;20007;-73
2023/06/06 04:23:56;;;;;;;17.48;7.40;;;;;;;11.35;85.93;102401.53;6092403;19;20011;-74
2023/06/06 04:26:04;;;;;;;18.50;7.55;;;;;;;11.43;85.95;102404.88;6095494;19;20006;-73
2023/06/06 04:28:09;;;;;;;16.88;6.63;;;;;;;11.46;85.58;102406.59;6091521;19;20003;-73
2023/06/06 04:30:22;;;;;;;16.33;7.78;;;;;;;11.47;85.61;102398.66;6092135;19;20011;-74
2023/06/06 04:32:27;;;;;;;;;;;;;;;11.51;85.07;102399.47;6086584;19;20029;-74
2023/06/06 04:34:33;;;;;;;17.00;7.40;;;;;;;11.52;85.28;102398.56;6095856;19;20308;-73
2023/06/06 04:36:41;;;;;;;16.67;7.05;;;;;;;11.57;85.29;102400.19;6095601;19;20017;-73
2023/06/06 04:38:49;;;;;;;15.43;6.95;;;;;;;11.67;85.09;102402.66;6093936;19;20015;-75
2023/06/06 04:40:54;;;;;;;17.73;7.70;;;;;;;11.74;84.88;102394.63;6089367;19;20014;-74
2023/06/06 04:43:25;;;;;;;14.32;6.57;;;;;;;11.78;84.30;102395.41;6093914;19;20011;-74
2023/06/06 04:45:30;;;;;;;13.38;6.45;;;;;;;11.73;84.50;102402.53;6084689;19;20539;-74
2023/06/06 04:47:36;;;;;;;13.95;7.03;;;;;;;11.76;84.64;102405.97;6094983;19;20006;-74
2023/06/06 04:49:43;;;;;;;16.23;6.85;;;;;;;11.80;84.37;102399.75;6091437;19;20473;-74
2023/06/06 04:51:48;;;;;;;14.52;7.38;;;;;;;11.91;84.26;102401.34;6091235;19;20007;-73
2023/06/06 04:53:53;;;;;;;14.05;6.55;;;;;;;11.97;83.58;102406.47;6090608;19;20303;-73
2023/06/06 04:56:03;;;;;;;14.43;6.45;;;;;;;12.00;83.48;102406.38;6082695;19;20463;-74
2023/06/06 04:58:08;;;;;;;13.93;6.22;;;;;;;12.01;83.41;102405.50;6091952;19;20010;-72
2023/06/06 05:00:17;;;;;;;12.77;6.10;;;;;;;12.02;83.47;102405.47;6093621;19;20032;-73
2023/06/06 05:02:28;;;;;;;16.00;6.70;;;;;;;12.02;83.02;102407.22;6092238;19;20006;-73
2023/06/06 05:04:33;;;;;;;16.08;5.82;;;;;;;12.11;83.08;102404.38;6091327;19;20007;-72
2023/06/06 05:06:39;;;;;;;13.30;6.28;;;;;;;12.10;82.43;102400.03;6072826;19;20007;-70
2023/06/06 05:08:46;;;;;;;13.50;6.47;;;;;;;12.19;82.47;102401.56;6092307;19;20011;-72
2023/06/06 05:10:54;;;;;;;13.10;6.35;;;;;;;12.16;82.46;102402.50;6093851;19;20041;-71
2023/06/06 05:12:58;;;;;;;12.25;5.65;;;;;;;12.27;82.46;102400.53;6088755;19;20641;-72
2023/06/06 05:15:06;;;;;;;16.13;6.13;;;;;;;12.29;82.09;102406.59;6093883;19;20021;-71
2023/06/06 05:17:22;;;;;;;14.77;6.03;;;;;;;12.36;82.05;102398.59;6091103;19;20006;-73
2023/06/06 05:19:27;;;;;;;13.57;5.75;;;;;;;12.38;81.82;102405.56;6095523;19;20473;-71
2023/06/06 05:21:36;;;;;;;13.48;5.45;;;;;;;12.32;81.82;102408.31;6088593;19;20801;-70
2023/06/06 05:23:41;;;;;;;13.40;6.07;;;;;;;12.41;81.86;102407.25;6086860;19;20039;-75
2023/06/06 05:25:46;;;;;;;13.15;5.85;;;;;;;12.41;81.51;102408.13;6102088;19;20112;-74
2023/06/06 05:27:52;;;;;;;13.88;5.80;;;;;;;12.49;81.80;102398.25;6095399;19;20020;-73
2023/06/06 05:29:57;;;;;;;12.02;5.88;;;;;;;12.49;81.62;102402.66;6096470;19;20498;-74
2023/06/06 05:32:02;;;;;;;13.82;5.53;;;;;;;12.60;81.60;102405.91;6094852;19;20006;-72
2023/06/06 05:34:09;;;;;;;11.57;5.47;;;;;;;12.67;81.48;102398.72;6093372;19;20011;-75
2023/06/06 05:36:14;;;;;;;11.32;5.63;;;;;;;12.74;81.15;102405.56;6092198;19;20472;-74
2023/06/06 05:38:22;;;;;;;10.55;5.43;;;;;;;12.87;80.62;102404.34;6093186;19;20002;-74
2023/06/06 05:40:27;;;;;;;10.32;5.32;;;;;;;12.98;80.74;102404.13;6095861;19;20749;-75
2023/06/06 05:42:32;;;;;;;12.57;5.55;;;;;;;13.06;80.44;102403.88;6090338;19;20036;-72
2023/06/06 05:44:37;;;;;;;12.43;5.43;;;;;;;13.02;80.52;102404.88;6094592;19;20511;-73
2023/06/06 05:46:43;;;;;;;13.38;5.82;;;;;;;13.11;79.88;102410.81;6091642;19;20015;-74
2023/06/06 05:48:49;;;;;;;11.52;5.28;;;;;;;13.23;79.80;102411.38;6094505;19;20010;-74
2023/06/06 05:51:02;;;;;;;12.10;4.75;;;;;;;13.27;79.30;102408.66;6092831;19;20003;-75
2023/06/06 05:53:07;;;;;;;14.52;6.03;;;;;;;13.21;78.30;102411.41;6086267;19;20350;-72
2023/06/06 05:55:29;;;;;;;12.68;6.25;;;;;;;13.37;78.81;102412.75;6091138;19;20021;-73
2023/06/06 05:57:34;;;;;;;14.75;5.38;;;;;;;13.54;78.41;102408.81;6090594;19;20010;-73
2023/06/06 05:59:41;;;;;;;16.02;6.18;;;;;;;13.59;78.11;102405.13;6088615;19;20118;-73
2023/06/06 06:01:49;;;;;;;14.07;5.10;;;;;;;13.46;77.95;102403.75;6090089;19;20076;-74
2023/06/06 06:03:55;;;;;;;10.23;5.35;;;;;;;13.53;77.68;102409.69;6092165;19;20003;-74
2023/06/06 06:06:08;;;;;;;11.82;5.38;;;;;;;13.81;77.44;102404.50;6093588;19;20673;-76
2023/06/06 06:08:14;;;;;;;9.88;5.25;;;;;;;14.08;76.71;102412.53;6088030;19;20011;-75
2023/06/06 06:10:19;;;;;;;15.50;6.13;;;;;;;13.92;76.19;102405.06;6091913;19;20035;-74
2023/06/06 06:12:24;;;;;;;15.00;6.03;;;;;;;14.20;75.66;102413.03;6093424;19;20007;-73
2023/06/06 06:14:29;;;;;;;13.02;5.65;;;;;;;14.05;76.01;102408.22;6100825;19;20408;-73
2023/06/06 06:16:33;;;;;;;13.10;6.43;;;;;;;14.00;76.00;102412.75;6089966;19;20460;-74
2023/06/06 06:18:40;;;;;;;15.70;5.90;;;;;;;14.01;76.28;102404.81;6095797;19;20082;-73
2023/06/06 06:20:45;;;;;;;13.63;6.13;;;;;;;14.08;75.70;102410.75;6098166;19;20015;-75
2023/06/06 06:22:52;;;;;;;11.43;5.68;;;;;;;14.19;75.50;102405.13;6097449;19;20019;-74
2023/06/06 06:24:57;;;;;;;14.55;5.90;;;;;;;14.82;73.49;102408.47;6098830;19;20030;-74
2023/06/06 06:27:02;;;;;;;11.20;5.38;;;;;;;15.13;72.98;102414.44;6096659;19;20018;-74
2023/06/06 06:29:07;;;;;;;11.57;6.18;;;;;;;15.11;71.93;102410.13;6099246;19;20006;-74
2023/06/06 06:31:12;;;;;;;13.73;5.65;;;;;;;15.49;71.51;102400.84;6100354;19;20048;-74
2023/06/06 06:33:18;;;;;;;12.13;5.45;;;;;;;15.37;70.85;102403.91;6096213;19;20027;-75
2023/06/06 06:35:23;;;;;;;10.05;4.97;;;;;;;15.15;70.78;102401.16;6095259;19;20010;-73
2023/06/06 06:37:29;;;;;;;12.30;5.72;;;;;;;15.19;70.97;102402.78;6095297;19;20003;-74
2023/06/06 06:39:37;;;;;;;14.18;5.75;;;;;;;15.14;70.79;102402.09;6100977;19;20002;-74
2023/06/06 06:41:42;;;;;;;13.32;5.03;;;;;;;15.21;71.27;102411.53;6100565;19;20010;-74
2023/06/06 06:43:46;;;;;;;11.77;6.00;;;;;;;15.55;70.19;102410.34;6100801;19;20515;-74
2023/06/06 06:45:54;;;;;;;12.90;5.03;;;;;;;15.68;69.48;102408.97;6100439;19;20487;-74
2023/06/06 06:48:01;;;;;;;12.23;5.15;;;;;;;15.44;69.64;102412.53;6099710;19;20578;-74
2023/06/06 06:50:07;;;;;;;13.55;6.00;;;;;;;15.41;69.66;102412.63;6098645;19;20086;-75
2023/06/06 06:52:15;;;;;;;11.40;5.65;;;;;;;15.63;69.63;102410.91;6094314;19;20078;-74
2023/06/06 06:54:26;;;;;;;12.27;5.75;;;;;;;15.85;68.62;102408.41;6099887;19;20010;-77
2023/06/06 06:56:33;;;;;;;16.73;6.32;;;;;;;16.05;68.59;102410.28;6100046;19;20904;-74
2023/06/06 06:58:41;;;;;;;11.57;5.38;;;;;;;16.10;67.85;102410.97;6094146;19;20437;-73
2023/06/06 07:00:46;;;;;;;12.40;6.10;;;;;;;16.24;66.99;102410.41;6096045;19;22463;-74
2023/06/06 07:02:56;;;;;;;11.32;5.38;;;;;;;16.39;66.84;102411.59;6094887;19;20716;-74
2023/06/06 07:05:04;;;;;;;12.77;5.35;;;;;;;17.15;66.10;102412.91;6100792;19;20018;-74
2023/06/06 07:07:09;;;;;;;14.27;5.93;;;;;;;17.16;65.15;102413.78;6098748;19;20073;-73
2023/06/06 07:09:15;;;;;;;14.45;5.30;;;;;;;17.45;64.44;102405.38;6094703;19;20067;-73
2023/06/06 07:11:23;;;;;;;10.35;5.18;;;;;;;17.77;63.08;102411.03;6096282;19;20006;-75
2023/06/06 07:13:31;;;;;;;15.57;5.53;;;;;;;17.78;62.77;102410.13;6095792;19;20007;-73
2023/06/06 07:15:39;;;;;;;12.95;5.50;;;;;;;17.61;62.55;102410.00;6094694;19;20002;-73
2023/06/06 07:17:46;;;;;;;13.52;5.68;;;;;;;17.51;62.67;102413.09;6100639;19;20033;-74
2023/06/06 07:19:54;;;;;;;14.98;5.95;;;;;;;17.71;61.91;102403.34;6098861;19;20035;-73
2023/06/06 07:21:59;;;;;;;11.05;5.40;;;;;;;17.82;62.51;102411.72;6096438;19;20334;-73
2023/06/06 07:24:06;;;;;;;11.65;5.47;;;;;;;18.08;61.67;102407.00;6100672;19;20347;-73
2023/06/06 07:26:11;;;;;;;15.32;5.65;;;;;;;18.31;60.86;102405.91;6095276;19;20014;-73
2023/06/06 07:28:19;;;;;;;12.77;5.68;;;;;;;18.30;60.28;102397.06;6092970;19;20104;-75
2023/06/06 07:30:26;;;;;;;14.55;6.22;;;;;;;18.42;60.14;102396.44;6096112;19;20101;-73
2023/06/06 07:32:32;;;;;;;11.77;5.63;;;;;;;18.40;60.08;102392.16;6088609;19;20111;-72
2023/06/06 07:34:37;;;;;;;12.05;5.78;;;;;;;18.72;58.61;102398.56;6091779;19;20006;-73
2023/06/06 07:36:42;;;;;;;13.60;5.85;;;;;;;18.51;59.13;102391.63;6092868;19;20481;-74
2023/06/06 07:38:47;;;;;;;10.75;5.38;;;;;;;18.74;58.10;102394.00;6093508;19;20018;-73
2023/06/06 07:40:54;;;;;;;12.27;6.15;;;;;;;19.16;58.28;102387.44;6099617;19;20096;-73
2023/06/06 07:43:02;;;;;;;15.38;5.75;;;;;;;19.21;57.32;102388.06;6098373;19;20011;-73
2023/06/06 07:45:07;;;;;;;14.80;5.45;;;;;;;19.50;56.63;102388.34;6096727;19;20016;-74
2023/06/06 07:47:15;;;;;;;12.57;5.05;;;;;;;19.63;56.61;102389.41;6089047;19;20010;-75
2023/06/06 07:49:22;;;;;;;12.65;5.38;;;;;;;19.44;56.17;102386.00;6094302;19;20007;-72
2023/06/06 07:51:28;;;;;;;14.38;6.65;;;;;;;19.56;55.49;102382.66;6100758;19;20011;-72
2023/06/06 07:53:35;;;;;;;13.38;5.63;;;;;;;19.89;55.14;102385.34;6095262;19;20035;-72
2023/06/06 07:55:41;;;;;;;11.90;5.07;;;;;;;19.98;53.83;102383.97;6099068;19;20021;-73
2023/06/06 07:57:45;;;;;;;11.90;5.32;;;;;;;20.33;53.22;102381.13;6102663;19;20006;-73
2023/06/06 07:59:51;;;;;;;12.88;5.45;;;;;;;20.14;53.54;102387.53;6102389;19;20015;-74
2023/06/06 08:01:56;;;;;;;10.95;5.32;;;;;;;20.24;53.34;102384.31;6103241;19;20014;-73
2023/06/06 08:04:07;;;;;;;9.88;5.10;;;;;;;20.46;52.53;102379.47;6101443;19;20010;-74
2023/06/06 08:06:12;;;;;;;10.40;4.70;;;;;;;20.53;53.26;102378.16;6101676;19;20134;-73
2023/06/06 08:08:18;;;;;;;12.55;5.38;;;;;;;20.49;51.90;102376.63;6102047;19;20023;-74
2023/06/06 08:10:24;;;;;;;11.27;5.40;;;;;;;20.70;51.77;102373.69;6102282;19;20042;-74
2023/06/06 08:12:30;;;;;;;11.52;4.72;;;;;;;20.60;51.19;102384.91;6100391;19;20090;-74
2023/06/06 08:14:39;;;;;;;11.63;5.20;;;;;;;20.70;51.35;102373.69;6097681;19;20015;-73
2023/06/06 08:16:45;;;;;;;10.52;5.20;;;;;;;20.75;50.62;102380.47;6099486;19;20027;-73
2023/06/06 08:18:51;;;;;;;12.38;4.97;;;;;;;20.86;50.56;102385.19;6102646;19;20465;-74
2023/06/06 08:20:58;;;;;;;10.85;5.10;;;;;;;21.12;50.02;102382.78;6102709;19;20889;-73
2023/06/06 08:23:03;;;;;;;10.90;4.85;;;;;;;21.32;50.51;102387.75;6100698;19;20010;-73
2023/06/06 08:25:10;;;;;;;13.65;4.85;;;;;;;21.04;49.63;102381.41;6104700;19;20042;-73
2023/06/06 08:27:15;;;;;;;14.27;5.28;;;;;;;21.24;50.25;102372.16;6103462;19;20029;-75
2023/06/06 08:29:20;;;;;;;10.98;5.07;;;;;;;21.43;49.43;102379.97;6100730;19;20117;-73
2023/06/06 08:31:29;;;;;;;11.73;5.45;;;;;;;21.50;49.15;102379.59;6097271;19;20033;-71
2023/06/06 08:33:35;;;;;;;14.85;5.80;;;;;;;21.04;49.88;102378.75;6098336;19;20003;-70
2023/06/06 08:35:39;;;;;;;11.27;5.30;;;;;;;21.60;49.06;102373.56;6103692;19;20070;-71
2023/06/06 08:37:47;;;;;;;11.35;4.75;;;;;;;21.94;47.73;102378.59;6099102;19;20014;-72
2023/06/06 08:39:53;;;;;;;13.43;5.38;;;;;;;21.76;48.17;102376.13;6101835;19;20829;-71
2023/06/06 08:41:58;;;;;;;10.88;5.25;;;;;;;21.47;48.54;102365.44;6102814;19;20007;-72
2023/06/06 08:44:04;;;;;;;9.40;4.50;;;;;;;21.81;48.17;102366.00;6108056;19;20015;-71
2023/06/06 08:46:09;;;;;;;12.95;5.13;;;;;;;22.15;47.57;102374.53;6103911;19;20009;-72
2023/06/06 08:48:17;;;;;;;15.80;5.30;;;;;;;22.48;47.18;102360.75;6097307;19;20010;-72
2023/06/06 08:50:23;;;;;;;13.05;5.65;;;;;;;22.60;46.07;102372.47;6094057;19;20126;-71
2023/06/06 08:52:30;;;;;;;11.65;5.32;;;;;;;22.37;47.02;102365.97;6095191;19;20219;-71
2023/06/06 08:54:41;;;;;;;12.35;5.68;;;;;;;22.23;46.98;102369.56;6095966;19;20003;-71
2023/06/06 08:56:46;;;;;;;10.55;5.60;;;;;;;22.37;47.15;102367.78;6096130;19;20007;-71
2023/06/06 08:58:54;;;;;;;11.52;6.25;;;;;;;22.07;47.43;102367.00;6095696;19;20034;-72
2023/06/06 09:01:00;;;;;;;12.82;6.10;;;;;;;22.16;47.95;102372.69;6096023;19;20445;-71
2023/06/06 09:03:08;;;;;;;12.13;5.93;;;;;;;21.84;47.52;102363.13;6094294;19;20043;-72
2023/06/06 09:05:14;;;;;;;11.38;5.45;;;;;;;22.17;48.05;102369.94;6094123;19;20013;-71
2023/06/06 09:07:24;;;;;;;12.32;5.10;;;;;;;22.74;47.00;102364.34;6091331;19;20758;-72
2023/06/06 09:09:31;;;;;;;12.77;5.78;;;;;;;22.02;46.92;102357.53;6095092;19;20015;-70
2023/06/06 09:11:39;;;;;;;11.05;5.18;;;;;;;22.64;46.14;102357.88;6097991;19;20022;-72
2023/06/06 09:13:44;;;;;;;11.85;6.13;;;;;;;22.03;48.17;102360.09;6096890;19;20006;-72
2023/06/06 09:15:52;;;;;;;13.85;5.95;;;;;;;22.64;47.17;102357.88;6093484;19;20027;-71
2023/06/06 09:17:57;;;;;;;11.88;5.50;;;;;;;23.11;46.17;102361.84;6086566;19;20114;-72
2023/06/06 09:20:02;;;;;;;13.38;6.13;;;;;;;23.24;45.21;102359.16;6088866;19;20704;-72
2023/06/06 09:22:10;;;;;;;10.68;6.13;;;;;;;22.87;44.99;102355.47;6088821;19;20444;-72
2023/06/06 09:24:19;;;;;;;14.10;5.80;;;;;;;22.77;46.28;102366.81;6096573;19;20445;-72
2023/06/06 09:26:24;;;;;;;11.63;6.47;;;;;;;23.34;44.38;102357.56;6097882;19;20079;-71
2023/06/06 09:28:42;;;;;;;14.10;6.88;;;;;;;23.35;44.87;102355.72;6089658;19;20022;-72
2023/06/06 09:30:47;;;;;;;13.43;5.72;;;;;;;22.81;45.70;102363.94;6095436;19;20129;-70
2023/06/06 09:32:56;;;;;;;10.15;4.82;;;;;;;23.27;45.07;102356.28;6097219;19;20526;-70
2023/06/06 09:35:06;;;;;;;10.75;5.85;;;;;;;23.36;44.41;102362.84;6098046;19;20006;-72
2023/06/06 09:37:11;;;;;;;17.08;6.15;;;;;;;23.23;44.69;102352.97;6095380;19;20520;-71
2023/06/06 09:39:18;;;;;;;12.60;5.80;;;;;;;23.14;44.93;102356.25;6096176;19;20035;-72
2023/06/06 09:41:25;;;;;;;15.00;6.07;;;;;;;22.79;45.73;102351.50;6094729;19;20010;-72
2023/06/06 09:43:34;;;;;;;14.80;6.60;;;;;;;23.31;45.41;102351.56;6090848;19;20070;-71